Time;durP1;ratioP1;P1;durP2;ratioP2;P2;SDS_P1;SDS_P2;PMS_P1;PMS_P2;Temp;Humidity;BMP_temperature;BMP_pressure;BME280_temperature;BME280_humidity;BME280_pressure;Samples;Min_cycle;Max_cycle;Signal;HPM_P1;HPM_P2
2021/07/17 00:00:33;;;;;;;;;0.00;0.00;;;;;26.26;42.84;101746.50;5056482;28;45636;-61
2021/07/17 00:03:00;;;;;;;;;0.00;0.00;;;;;26.23;43.00;101742.03;5056541;28;45379;-61
2021/07/17 00:05:26;;;;;;;;;0.00;0.00;;;;;26.21;42.89;101743.03;5056667;28;45407;-59
2021/07/17 00:07:51;;;;;;;;;0.00;0.00;;;;;26.22;42.90;101744.81;5056629;28;45801;-61
2021/07/17 00:10:26;;;;;;;;;0.00;0.00;;;;;26.22;43.06;101744.81;5054855;28;48275;-60
2021/07/17 00:12:52;;;;;;;;;0.00;0.00;;;;;26.21;42.98;101743.03;5054359;28;45829;-60
2021/07/17 00:15:21;;;;;;;;;0.33;0.00;;;;;26.21;43.11;101749.38;5038179;28;45398;-61
2021/07/17 00:17:47;;;;;;;;;0.00;0.00;;;;;26.20;42.76;101746.69;5056361;28;45493;-61
2021/07/17 00:20:14;;;;;;;;;0.00;0.00;;;;;26.19;42.85;101745.81;5056065;28;45772;-61
2021/07/17 00:22:39;;;;;;;;;0.00;0.00;;;;;26.17;42.91;101749.53;5055006;28;45441;-61
2021/07/17 00:25:17;;;;;;;;;0.00;0.00;;;;;26.14;42.88;101745.97;5056193;28;45516;-61
2021/07/17 00:27:43;;;;;;;;;0.25;0.00;;;;;26.13;42.90;101744.19;5037726;28;45744;-60
2021/07/17 00:30:09;;;;;;;;;0.00;0.00;;;;;26.13;42.83;101746.03;5055839;28;46321;-61
2021/07/17 00:32:35;;;;;;;;;0.00;0.00;;;;;26.12;43.01;101742.41;5055776;28;45458;-61
2021/07/17 00:35:00;;;;;;;;;0.00;0.00;;;;;26.10;42.95;101749.75;5055834;28;45458;-61
2021/07/17 00:37:26;;;;;;;;;0.00;0.00;;;;;26.09;42.86;101742.50;5056200;28;45429;-61
2021/07/17 00:39:51;;;;;;;;;1.00;0.00;;;;;26.09;43.20;101745.25;5054421;28;46129;-60
2021/07/17 00:42:16;;;;;;;;;0.00;0.00;;;;;26.08;43.19;101737.13;5055943;28;45401;-61
2021/07/17 00:44:42;;;;;;;;;0.00;0.00;;;;;26.08;42.92;101748.03;5055693;28;45730;-59
2021/07/17 00:47:07;;;;;;;;;0.33;0.33;;;;;26.07;43.07;101741.69;5055909;28;45416;-60
2021/07/17 00:49:33;;;;;;;;;0.00;0.00;;;;;26.06;43.01;101744.47;5037318;28;46245;-60
2021/07/17 00:51:59;;;;;;;;;0.00;0.00;;;;;26.07;43.11;101747.13;5055545;28;45439;-59
2021/07/17 00:54:25;;;;;;;;;1.00;1.00;;;;;26.05;43.01;101754.47;5037519;28;45430;-61
2021/07/17 00:56:52;;;;;;;;;0.00;0.00;;;;;26.03;42.68;101744.56;5037449;28;45511;-61
2021/07/17 00:59:21;;;;;;;;;1.00;1.00;;;;;26.04;42.56;101758.16;5055515;28;45555;-58
2021/07/17 01:01:50;;;;;;;;;0.00;0.00;;;;;26.02;42.73;101754.59;5037501;28;45542;-61
2021/07/17 01:04:16;;;;;;;;;2.00;0.00;;;;;26.01;43.05;101751.91;5055230;28;45537;-61
2021/07/17 01:06:42;;;;;;;;;1.00;1.00;;;;;25.97;42.77;101745.66;5055378;28;45467;-63
2021/07/17 01:09:08;;;;;;;;;1.00;1.00;;;;;25.98;42.70;101752.03;5020643;28;47164;-61
2021/07/17 01:11:33;;;;;;;;;0.00;0.00;;;;;25.98;42.68;101746.59;5054746;28;45561;-61
2021/07/17 01:13:59;;;;;;;;;1.00;1.00;;;;;25.97;42.79;101751.13;5055257;28;45424;-61
2021/07/17 01:16:24;;;;;;;;;1.50;1.50;;;;;25.96;42.92;101752.06;5055464;28;45429;-61
2021/07/17 01:18:50;;;;;;;;;1.00;0.00;;;;;25.94;42.92;101754.84;5036966;28;47162;-60
2021/07/17 01:21:17;;;;;;;;;1.00;1.00;;;;;25.93;42.81;101750.34;5055488;28;45702;-61
2021/07/17 01:23:45;;;;;;;;;1.00;1.00;;;;;25.93;42.90;101749.44;5055429;28;45589;-61
2021/07/17 01:26:11;;;;;;;;;0.50;0.50;;;;;25.91;42.92;101740.44;5055560;28;45671;-61
2021/07/17 01:28:38;;;;;;;;;0.75;0.00;;;;;25.88;42.68;101744.13;5055111;28;45731;-61
2021/07/17 01:31:04;;;;;;;;;0.75;0.75;;;;;25.90;42.66;101755.00;5055379;28;45521;-61
2021/07/17 01:33:30;;;;;;;;;1.67;0.67;;;;;25.89;42.42;101750.47;5054708;28;45478;-59
2021/07/17 01:35:55;;;;;;;;;1.00;1.00;;;;;25.88;42.72;101746.84;5055041;28;45685;-60
2021/07/17 01:38:20;;;;;;;;;0.00;0.00;;;;;25.85;42.71;101746.94;5054793;28;45386;-60
2021/07/17 01:40:47;;;;;;;;;1.00;0.00;;;;;25.85;42.79;101735.16;5054638;28;45431;-60
2021/07/17 01:43:13;;;;;;;;;0.75;0.00;;;;;25.85;42.65;101732.44;5055066;28;45678;-60
2021/07/17 01:45:39;;;;;;;;;0.67;0.67;;;;;25.84;42.54;101742.44;5054217;28;45422;-59
2021/07/17 01:48:05;;;;;;;;;0.00;0.00;;;;;25.84;42.67;101739.72;5054581;28;46952;-59
2021/07/17 01:50:31;;;;;;;;;0.00;0.00;;;;;25.83;42.65;101731.59;5036269;28;45608;-59
2021/07/17 01:52:59;;;;;;;;;0.00;0.00;;;;;25.83;42.70;101739.75;5054555;28;45507;-60
2021/07/17 01:55:25;;;;;;;;;2.00;1.00;;;;;25.81;42.79;101733.47;5054694;28;45457;-59
2021/07/17 01:57:51;;;;;;;;;0.00;0.00;;;;;25.81;42.74;101731.63;5054393;28;46120;-60
2021/07/17 02:00:18;;;;;;;;;0.00;0.00;;;;;25.80;42.98;101732.59;5054447;28;45359;-60
2021/07/17 02:02:45;;;;;;;;;0.00;0.00;;;;;25.79;42.75;101730.78;5054592;28;45446;-61
2021/07/17 02:05:11;;;;;;;;;0.00;0.00;;;;;25.79;42.85;101735.38;5054374;28;44978;-59
2021/07/17 02:07:36;;;;;;;;;0.00;0.00;;;;;25.78;42.51;101734.47;5054211;28;45973;-59
2021/07/17 02:10:11;;;;;;;;;0.67;0.67;;;;;25.78;42.71;101730.88;5036133;28;45537;-60
2021/07/17 02:12:39;;;;;;;;;0.00;0.00;;;;;25.77;42.69;101731.78;5054150;28;45983;-60
2021/07/17 02:15:08;;;;;;;;;0.00;0.00;;;;;25.77;42.70;101745.41;5053024;28;45421;-60
2021/07/17 02:17:34;;;;;;;;;0.00;0.00;;;;;25.76;42.91;101741.81;5054053;28;46152;-60
2021/07/17 02:19:59;;;;;;;;;1.67;1.00;;;;;25.75;42.49;101740.94;5053928;28;45435;-59
2021/07/17 02:22:24;;;;;;;;;0.00;0.00;;;;;25.74;42.79;101743.69;5054372;28;45449;-60
2021/07/17 02:24:51;;;;;;;;;1.33;1.33;;;;;25.73;42.79;101737.38;5054406;28;45651;-60
2021/07/17 02:27:17;;;;;;;;;0.00;0.00;;;;;25.72;42.65;101740.13;5053921;28;45726;-60
2021/07/17 02:29:42;;;;;;;;;0.33;0.33;;;;;25.70;42.64;101731.13;5053866;28;45998;-60
2021/07/17 02:32:07;;;;;;;;;0.00;0.00;;;;;25.71;42.77;101728.34;5054200;28;45492;-59
2021/07/17 02:34:33;;;;;;;;;0.00;0.00;;;;;25.70;42.61;101723.84;5054265;28;45442;-60
2021/07/17 02:36:58;;;;;;;;;1.00;1.00;;;;;25.70;42.52;101729.28;5054011;28;45464;-60
2021/07/17 02:39:23;;;;;;;;;0.33;0.33;;;;;25.68;42.81;101725.72;5053951;28;45517;-60
2021/07/17 02:41:49;;;;;;;;;1.00;1.00;;;;;25.67;42.67;101721.22;5053996;28;45534;-60
2021/07/17 02:44:14;;;;;;;;;0.00;0.00;;;;;25.68;42.81;101727.56;5054449;28;45513;-60
2021/07/17 02:46:41;;;;;;;;;1.00;1.00;;;;;25.67;42.57;101726.69;5057716;28;45386;-60
2021/07/17 02:49:07;;;;;;;;;1.00;0.00;;;;;25.67;42.61;101736.66;5022445;28;45485;-60
2021/07/17 02:51:32;;;;;;;;;0.67;0.67;;;;;25.66;42.66;101741.22;5039435;28;45474;-61
2021/07/17 02:53:58;;;;;;;;;2.00;0.00;;;;;25.65;42.72;101734.00;5057569;28;45749;-60
2021/07/17 02:56:23;;;;;;;;;1.75;1.75;;;;;25.63;42.56;101735.91;5057089;28;46020;-60
2021/07/17 02:58:48;;;;;;;;;0.67;0.67;;;;;25.61;42.71;101735.06;5057300;28;45449;-60
2021/07/17 03:01:14;;;;;;;;;0.00;0.00;;;;;25.62;42.59;101728.66;5057116;28;45424;-60
2021/07/17 03:03:39;;;;;;;;;0.67;0.67;;;;;25.61;42.85;101732.31;5057288;28;45668;-60
2021/07/17 03:06:04;;;;;;;;;1.00;1.00;;;;;25.61;42.75;101732.31;5056957;28;45370;-61
2021/07/17 03:08:30;;;;;;;;;1.00;1.00;;;;;25.61;42.63;101732.31;5038916;28;45502;-60
2021/07/17 03:11:01;;;;;;;;;0.33;0.33;;;;;25.60;42.69;101735.97;5057266;28;45636;-60
2021/07/17 03:13:34;;;;;;;;;0.33;0.33;;;;;25.59;42.78;101736.91;5019262;28;45697;-60
2021/07/17 03:15:59;;;;;;;;;0.67;0.67;;;;;25.59;42.58;101739.63;5036562;28;45574;-60
2021/07/17 03:18:24;;;;;;;;;1.00;0.67;;;;;25.58;42.63;101743.31;5037111;28;45553;-60
2021/07/17 03:20:50;;;;;;;;;0.00;0.00;;;;;25.57;42.64;101733.34;5037088;28;45457;-60
2021/07/17 03:23:15;;;;;;;;;0.67;0.67;;;;;25.54;42.55;101730.72;5037368;28;45430;-60
2021/07/17 03:25:40;;;;;;;;;0.00;0.00;;;;;25.56;42.74;101734.28;5035075;28;45945;-60
2021/07/17 03:28:06;;;;;;;;;1.67;1.67;;;;;25.55;42.64;101736.13;5036698;28;45510;-60
2021/07/17 03:30:31;;;;;;;;;0.00;0.00;;;;;25.53;42.43;101723.50;5036900;28;45420;-59
2021/07/17 03:32:56;;;;;;;;;0.33;0.33;;;;;25.54;42.73;101728.88;5037151;28;45952;-60
2021/07/17 03:35:22;;;;;;;;;3.00;1.00;;;;;25.51;42.33;101726.28;5036355;28;45910;-59
2021/07/17 03:37:47;;;;;;;;;0.00;0.00;;;;;25.52;42.36;101732.63;5036834;28;45533;-60
2021/07/17 03:40:13;;;;;;;;;0.00;0.00;;;;;25.53;42.66;101745.28;5036916;28;45693;-60
2021/07/17 03:42:38;;;;;;;;;1.00;1.00;;;;;25.52;42.82;101735.34;5036753;28;45435;-60
2021/07/17 03:45:05;;;;;;;;;0.00;0.00;;;;;25.53;42.39;101739.81;5036320;28;45457;-60
2021/07/17 03:47:30;;;;;;;;;0.67;0.67;;;;;25.51;42.76;101741.72;5035726;28;45354;-60
2021/07/17 03:49:55;;;;;;;;;0.00;0.00;;;;;25.51;42.51;101733.53;5035796;28;45547;-60
2021/07/17 03:52:22;;;;;;;;;1.00;1.00;;;;;25.51;42.71;101736.25;5036564;28;45565;-60
2021/07/17 03:54:47;;;;;;;;;1.00;0.00;;;;;25.49;42.82;101738.16;5036221;28;45782;-60
2021/07/17 03:57:12;;;;;;;;;0.00;0.00;;;;;25.48;42.95;101733.66;5036203;28;45730;-60
2021/07/17 03:59:38;;;;;;;;;0.00;0.00;;;;;25.49;42.89;101735.44;5036337;28;45483;-60
2021/07/17 04:02:04;;;;;;;;;0.00;0.00;;;;;25.49;42.62;101740.88;5036505;28;45512;-60
2021/07/17 04:04:30;;;;;;;;;1.00;1.00;;;;;25.49;42.75;101738.16;5036101;28;45620;-61
2021/07/17 04:06:55;;;;;;;;;0.25;0.00;;;;;25.49;42.58;101735.44;5036359;28;45671;-61
2021/07/17 04:09:21;;;;;;;;;0.25;0.25;;;;;25.47;42.78;101738.22;5018318;28;45418;-60
2021/07/17 04:11:46;;;;;;;;;0.00;0.00;;;;;25.47;42.69;101740.03;5035826;28;45429;-61
2021/07/17 04:14:12;;;;;;;;;1.33;1.33;;;;;25.46;42.96;101738.25;5035858;28;46116;-61
2021/07/17 04:16:37;;;;;;;;;1.00;1.00;;;;;25.43;42.82;101741.06;5036165;28;45901;-61
2021/07/17 04:19:03;;;;;;;;;1.00;1.00;;;;;25.45;42.40;101750.09;5036022;28;45394;-62
2021/07/17 04:21:30;;;;;;;;;1.00;1.00;;;;;25.43;42.59;101746.50;5018165;28;45451;-60
2021/07/17 04:23:55;;;;;;;;;1.00;1.00;;;;;25.44;42.79;101748.31;5017795;28;45974;-61
2021/07/17 04:26:21;;;;;;;;;1.00;1.00;;;;;25.44;42.62;101745.59;5035676;28;45492;-60
2021/07/17 04:28:46;;;;;;;;;2.00;2.00;;;;;25.43;42.86;101743.78;5035835;28;45472;-60
2021/07/17 04:31:11;;;;;;;;;1.00;1.00;;;;;25.45;42.63;101741.91;5036114;28;45960;-61
2021/07/17 04:33:38;;;;;;;;;1.00;1.00;;;;;25.44;42.65;101745.59;5035669;28;46152;-61
2021/07/17 04:36:04;;;;;;;;;1.00;1.00;;;;;25.44;42.62;101748.31;5035519;28;45485;-57
2021/07/17 04:38:30;;;;;;;;;2.00;2.00;;;;;25.42;42.86;101744.75;5017692;28;45801;-61
2021/07/17 04:40:55;;;;;;;;;1.00;1.00;;;;;25.43;42.86;101739.25;5035761;28;45421;-60
2021/07/17 04:43:21;;;;;;;;;1.33;0.00;;;;;25.43;42.65;101739.25;5035399;28;46356;-60
2021/07/17 04:45:47;;;;;;;;;0.00;0.00;;;;;25.44;42.20;101740.16;5035524;28;45484;-60
2021/07/17 04:48:12;;;;;;;;;0.00;0.00;;;;;25.42;42.75;101736.59;5035948;28;45416;-59
2021/07/17 04:50:38;;;;;;;;;0.00;0.00;;;;;25.43;42.89;101738.34;5035572;28;45567;-59
2021/07/17 04:53:05;;;;;;;;;1.00;0.33;;;;;25.44;42.81;101748.31;5017404;28;47508;-60
2021/07/17 04:55:30;;;;;;;;;1.00;1.00;;;;;25.42;42.72;101752.91;5035224;28;45400;-59
2021/07/17 04:57:56;;;;;;;;;1.00;1.00;;;;;25.42;42.58;101753.81;5035170;28;45539;-60
2021/07/17 05:00:22;;;;;;;;;1.00;1.00;;;;;25.42;42.38;101752.91;5035407;28;45477;-61
2021/07/17 05:02:53;;;;;;;;;1.00;1.00;;;;;25.42;42.66;101756.53;5035026;28;45943;-60
2021/07/17 05:05:20;;;;;;;;;1.33;0.00;;;;;25.41;42.57;101756.56;5035076;28;45441;-61
2021/07/17 05:07:47;;;;;;;;;0.00;0.00;;;;;25.40;42.65;101761.13;5034783;28;45530;-61
2021/07/17 05:10:14;;;;;;;;;0.67;0.67;;;;;25.39;42.62;101759.38;5017505;28;45783;-61
2021/07/17 05:12:41;;;;;;;;;0.33;0.33;;;;;25.40;42.26;101760.25;5034785;28;45517;-61
2021/07/17 05:15:11;;;;;;;;;0.67;0.67;;;;;25.39;42.58;101766.63;5034871;28;45449;-61
2021/07/17 05:17:36;;;;;;;;;1.33;1.33;;;;;25.38;42.84;101763.00;5035233;28;45458;-60
2021/07/17 05:20:04;;;;;;;;;2.33;1.00;;;;;25.32;42.62;101764.09;5035214;28;45679;-60
2021/07/17 05:22:31;;;;;;;;;1.00;1.00;;;;;25.40;42.76;101771.16;5017053;28;47070;-61
2021/07/17 05:24:57;;;;;;;;;0.00;0.00;;;;;25.39;42.90;101766.63;5035116;28;45844;-61
2021/07/17 05:27:22;;;;;;;;;1.33;1.33;;;;;25.38;42.96;101762.13;5034999;28;45454;-61
2021/07/17 05:29:48;;;;;;;;;2.00;2.00;;;;;25.38;42.85;101765.75;5035072;28;45332;-60
2021/07/17 05:32:14;;;;;;;;;0.00;0.00;;;;;25.38;42.62;101765.75;5034869;28;45458;-61
2021/07/17 05:34:41;;;;;;;;;0.00;0.00;;;;;25.38;42.71;101762.13;5034686;28;45444;-60
2021/07/17 05:37:09;;;;;;;;;1.33;1.33;;;;;25.34;42.69;101756.75;5034832;28;45489;-60
2021/07/17 05:39:36;;;;;;;;;2.00;1.00;;;;;25.36;42.43;101759.44;5016725;28;45530;-61
2021/07/17 05:42:03;;;;;;;;;0.00;0.00;;;;;25.36;42.61;101754.00;5037974;28;45422;-60
2021/07/17 05:44:28;;;;;;;;;0.33;0.33;;;;;25.37;42.95;101754.88;5054696;28;45427;-60
2021/07/17 05:46:54;;;;;;;;;1.00;1.00;;;;;25.36;42.65;101754.00;5054984;28;45410;-60
2021/07/17 05:49:20;;;;;;;;;1.33;1.33;;;;;25.36;42.92;101748.56;5055040;28;45441;-60
2021/07/17 05:51:46;;;;;;;;;1.00;1.00;;;;;25.35;42.70;101755.84;5054532;28;45398;-60
2021/07/17 05:54:12;;;;;;;;;2.00;2.00;;;;;25.35;42.85;101758.56;5054665;28;45582;-60
2021/07/17 05:56:38;;;;;;;;;2.00;2.00;;;;;25.36;42.79;101754.00;5055119;28;45798;-60
2021/07/17 05:59:03;;;;;;;;;0.00;0.00;;;;;25.35;42.65;101754.97;5054603;28;45572;-61
2021/07/17 06:01:28;;;;;;;;;0.00;0.00;;;;;25.37;42.62;101754.88;5054672;28;45371;-60
2021/07/17 06:03:54;;;;;;;;;1.00;1.00;;;;;25.37;42.61;101760.34;5053019;28;45572;-60
2021/07/17 06:06:19;;;;;;;;;2.00;0.00;;;;;25.35;42.90;101753.13;5036446;28;45505;-60
2021/07/17 06:08:44;;;;;;;;;1.00;1.00;;;;;25.34;42.70;101759.50;5053322;28;45459;-60
2021/07/17 06:11:10;;;;;;;;;0.67;0.67;;;;;25.36;42.43;101762.16;5054238;28;46181;-60
2021/07/17 06:13:35;;;;;;;;;1.33;1.33;;;;;25.37;42.55;101760.34;5053865;28;45505;-61
2021/07/17 06:16:01;;;;;;;;;0.33;0.33;;;;;25.34;42.86;101756.75;5054409;28;45414;-59
2021/07/17 06:18:26;;;;;;;;;0.33;0.33;;;;;25.37;42.64;101761.25;5054492;28;45430;-60
2021/07/17 06:20:51;;;;;;;;;0.67;0.67;;;;;25.37;42.65;101754.88;5057075;28;45299;-60
2021/07/17 06:23:18;;;;;;;;;0.67;0.67;;;;;25.38;42.76;101760.28;5057957;28;45884;-61
2021/07/17 06:25:43;;;;;;;;;0.00;0.00;;;;;25.36;42.58;101762.16;5058098;28;45433;-61
2021/07/17 06:28:08;;;;;;;;;1.00;1.00;;;;;25.38;42.78;101757.56;5058256;28;45383;-60
2021/07/17 06:30:34;;;;;;;;;1.00;1.00;;;;;25.38;42.52;101759.41;5057883;28;45363;-60
2021/07/17 06:32:59;;;;;;;;;1.33;1.33;;;;;25.38;42.27;101768.47;5057891;28;45437;-60
2021/07/17 06:35:25;;;;;;;;;2.67;2.67;;;;;25.41;42.68;101767.47;5057505;28;45453;-60
2021/07/17 06:37:50;;;;;;;;;0.00;0.00;;;;;25.40;42.61;101765.69;5057836;28;45696;-61
2021/07/17 06:40:17;;;;;;;;;1.67;1.67;;;;;25.41;42.24;101770.19;5055920;28;46431;-60
2021/07/17 06:42:47;;;;;;;;;1.00;1.00;;;;;25.38;42.59;101770.31;5057400;28;45814;-61
2021/07/17 06:45:14;;;;;;;;;1.33;1.33;;;;;25.41;42.59;101775.63;5057523;28;45462;-61
2021/07/17 06:47:40;;;;;;;;;2.00;1.00;;;;;25.42;42.66;101777.44;5057686;28;45396;-61
2021/07/17 06:50:07;;;;;;;;;0.67;0.67;;;;;25.42;42.59;101780.16;5057342;28;45525;-61
2021/07/17 06:52:34;;;;;;;;;2.00;2.00;;;;;25.42;42.47;101780.16;5057287;28;45577;-61
2021/07/17 06:54:59;;;;;;;;;1.33;0.67;;;;;25.39;42.77;101772.97;5057370;28;45460;-60
2021/07/17 06:57:24;;;;;;;;;0.67;0.00;;;;;25.43;42.61;101779.19;5055918;28;45480;-61
2021/07/17 06:59:51;;;;;;;;;1.00;1.00;;;;;25.42;42.97;101781.03;5057010;28;45822;-61
2021/07/17 07:02:17;;;;;;;;;0.67;0.67;;;;;25.43;42.74;101791.00;5057128;28;45498;-61
2021/07/17 07:04:42;;;;;;;;;1.00;1.00;;;;;25.43;42.88;101792.81;5057244;28;45795;-61
2021/07/17 07:07:07;;;;;;;;;2.00;2.00;;;;;25.43;42.91;101787.38;5039386;28;45681;-61
2021/07/17 07:09:33;;;;;;;;;3.00;2.00;;;;;25.43;42.49;101792.81;5057008;28;46358;-60
2021/07/17 07:11:58;;;;;;;;;2.00;2.00;;;;;25.43;42.71;101791.00;5056446;28;45425;-60
2021/07/17 07:14:25;;;;;;;;;0.00;0.00;;;;;25.43;42.71;101787.38;5057162;28;45437;-59
2021/07/17 07:16:50;;;;;;;;;1.00;1.00;;;;;25.44;42.67;101789.16;5057247;28;45573;-61
2021/07/17 07:19:16;;;;;;;;;0.00;0.00;;;;;25.45;42.87;101790.94;5038690;28;46923;-61
2021/07/17 07:21:42;;;;;;;;;0.00;0.00;;;;;25.45;42.91;101791.84;5057108;28;45940;-60
2021/07/17 07:24:07;;;;;;;;;1.00;1.00;;;;;25.46;42.78;101785.44;5056557;28;45485;-61
2021/07/17 07:26:33;;;;;;;;;1.00;1.00;;;;;25.48;42.49;101794.47;5056927;28;45723;-61
2021/07/17 07:28:58;;;;;;;;;2.00;2.00;;;;;25.48;42.71;101794.47;5056405;28;45386;-60
2021/07/17 07:31:25;;;;;;;;;2.00;2.00;;;;;25.48;42.62;101789.00;5056057;28;45464;-62
2021/07/17 07:33:51;;;;;;;;;1.00;1.00;;;;;25.48;42.77;101808.09;5056138;28;45527;-61
2021/07/17 07:36:17;;;;;;;;;1.33;1.33;;;;;25.52;42.87;101820.66;5056684;28;45885;-62
2021/07/17 07:38:43;;;;;;;;;2.00;2.00;;;;;25.53;42.86;101806.13;5056444;28;45756;-63
2021/07/17 07:41:10;;;;;;;;;0.67;0.67;;;;;25.56;42.66;101818.75;5056197;28;45583;-65
2021/07/17 07:43:35;;;;;;;;;1.00;1.00;;;;;25.58;42.98;101813.25;5056706;28;45459;-65
2021/07/17 07:46:02;;;;;;;;;0.67;0.67;;;;;25.59;43.19;101813.19;5056552;28;45513;-64
2021/07/17 07:48:27;;;;;;;;;0.00;0.00;;;;;25.61;42.82;101819.50;5056200;28;46112;-65
2021/07/17 07:50:53;;;;;;;;;2.00;0.67;;;;;25.63;42.62;101813.97;5056586;28;45455;-65
2021/07/17 07:53:18;;;;;;;;;0.67;0.00;;;;;25.63;43.05;101812.19;5055034;28;45747;-64
2021/07/17 07:55:43;;;;;;;;;0.25;0.25;;;;;25.66;42.87;101817.50;5038663;28;44904;-63
2021/07/17 07:58:09;;;;;;;;;0.00;0.00;;;;;25.67;42.86;101815.66;5056217;28;45449;-65
2021/07/17 08:00:34;;;;;;;;;0.00;0.00;;;;;25.70;42.65;101823.75;5056033;28;45359;-65
2021/07/17 08:03:00;;;;;;;;;0.00;0.00;;;;;25.70;42.66;101819.19;5056309;28;45394;-64
2021/07/17 08:05:25;;;;;;;;;0.00;0.00;;;;;25.71;42.71;101821.00;5056444;28;45748;-65
2021/07/17 08:07:52;;;;;;;;;0.00;0.00;;;;;25.72;43.15;101814.59;5055945;28;45508;-65
2021/07/17 08:10:18;;;;;;;;;0.00;0.00;;;;;25.72;42.71;101820.03;5056213;28;45816;-65
2021/07/17 08:12:43;;;;;;;;;0.00;0.00;;;;;25.75;42.75;101822.69;5055861;28;45363;-65
2021/07/17 08:15:09;;;;;;;;;0.00;0.00;;;;;25.77;42.96;101824.44;5056188;28;45437;-65
2021/07/17 08:17:35;;;;;;;;;0.00;0.00;;;;;25.78;42.80;101826.25;5056046;28;45351;-65
2021/07/17 08:20:00;;;;;;;;;1.67;0.00;;;;;25.79;42.99;101820.72;5055982;28;45409;-65
2021/07/17 08:22:26;;;;;;;;;0.00;0.00;;;;;25.81;43.15;101823.41;5056014;28;46007;-66
2021/07/17 08:24:51;;;;;;;;;0.00;0.00;;;;;25.84;42.92;101826.94;5056180;28;45460;-65
2021/07/17 08:27:17;;;;;;;;;0.00;0.00;;;;;25.86;42.97;101826.88;5055959;28;46024;-65
2021/07/17 08:29:42;;;;;;;;;0.33;0.00;;;;;25.87;43.84;101823.19;5055931;28;45548;-60
2021/07/17 08:32:07;;;;;;;;;0.00;0.00;;;;;25.89;43.37;101824.94;5056131;28;45768;-59
2021/07/17 08:34:34;;;;;;;;;0.00;0.00;;;;;25.91;43.66;101822.19;5056377;28;45454;-60
2021/07/17 08:36:59;;;;;;;;;1.00;1.00;;;;;25.90;43.82;101810.41;5055579;28;45989;-60
2021/07/17 08:39:24;;;;;;;;;0.00;0.00;;;;;25.93;44.06;101810.31;5055776;28;45453;-59
2021/07/17 08:41:51;;;;;;;;;0.00;0.00;;;;;25.94;43.87;101805.75;5055289;28;45524;-58
2021/07/17 08:44:18;;;;;;;;;0.00;0.00;;;;;25.98;43.94;101814.72;5055540;28;45490;-60
2021/07/17 08:46:46;;;;;;;;;0.00;0.00;;;;;25.95;43.99;101804.78;5055428;28;45926;-58
2021/07/17 08:49:12;;;;;;;;;0.00;0.00;;;;;26.01;44.22;101818.22;5055106;28;45572;-61
2021/07/17 08:51:38;;;;;;;;;0.00;0.00;;;;;26.04;43.93;101817.25;5055963;28;45436;-61
2021/07/17 08:54:04;;;;;;;;;0.00;0.00;;;;;26.05;43.58;101819.00;5054957;28;45567;-60
2021/07/17 08:56:30;;;;;;;;;0.33;0.00;;;;;26.07;43.94;101818.00;5055384;28;45527;-60
2021/07/17 08:58:56;;;;;;;;;0.00;0.00;;;;;26.07;43.61;101807.09;5055016;28;45450;-60
2021/07/17 09:01:21;;;;;;;;;0.00;0.00;;;;;26.10;43.62;101815.19;5055355;28;45412;-59
2021/07/17 09:03:48;;;;;;;;;0.00;0.00;;;;;26.12;43.45;101813.31;5055788;28;45413;-60
2021/07/17 09:06:14;;;;;;;;;0.00;0.00;;;;;26.13;43.42;101812.34;5055297;28;45495;-59
2021/07/17 09:08:39;;;;;;;;;0.00;0.00;;;;;26.18;43.30;101808.56;5055324;28;45351;-60
2021/07/17 09:11:11;;;;;;;;;0.67;0.67;;;;;26.19;43.59;101818.56;5055513;28;45799;-60
2021/07/17 09:13:44;;;;;;;;;1.00;1.00;;;;;26.22;43.68;101811.16;5055448;28;45429;-60
2021/07/17 09:16:12;;;;;;;;;0.00;0.00;;;;;26.24;43.58;101809.28;5055349;28;45488;-61
2021/07/17 09:18:53;;;;;;;;;0.00;0.00;;;;;26.25;43.19;101810.16;5055953;28;45390;-62
2021/07/17 09:21:33;;;;;;;;;0.00;0.00;;;;;26.30;43.42;101810.91;5055246;28;45466;-61
2021/07/17 09:24:18;;;;;;;;;0.00;0.00;;;;;26.32;43.15;101812.63;5054988;28;45603;-60
2021/07/17 09:26:50;;;;;;;;;1.00;1.00;;;;;26.35;43.03;101803.44;5054207;28;45491;-61
2021/07/17 09:29:16;;;;;;;;;0.00;0.00;;;;;26.38;43.16;101802.44;5053043;28;45553;-60
2021/07/17 09:31:52;;;;;;;;;0.00;0.00;;;;;26.40;43.46;101806.91;5054086;28;45591;-61
2021/07/17 09:34:20;;;;;;;;;0.00;0.00;;;;;26.43;43.40;101801.31;5042847;28;45940;-61
2021/07/17 09:36:54;;;;;;;;;0.00;0.00;;;;;26.47;43.55;101799.38;5054674;28;45487;-62
2021/07/17 09:39:22;;;;;;;;;1.00;1.00;;;;;26.50;43.51;101802.91;5054012;28;45502;-59
2021/07/17 09:41:55;;;;;;;;;1.00;1.00;;;;;26.52;43.70;101798.28;5054673;28;45526;-61
2021/07/17 09:44:23;;;;;;;;;1.33;1.33;;;;;26.55;43.67;101798.16;5053735;28;45468;-61
2021/07/17 09:46:49;;;;;;;;;1.00;1.00;;;;;26.57;43.78;101799.97;5054277;28;45422;-61
2021/07/17 09:49:17;;;;;;;;;0.00;0.00;;;;;26.57;43.52;101794.50;5054349;28;45544;-62
2021/07/17 09:51:42;;;;;;;;;0.67;0.67;;;;;26.60;44.18;101799.88;5054361;28;45802;-61
2021/07/17 09:54:08;;;;;;;;;0.00;0.00;;;;;26.60;45.02;101789.88;5035901;28;45352;-60
2021/07/17 09:56:36;;;;;;;;;0.33;0.33;;;;;26.61;45.17;101790.75;5054143;28;46253;-61
2021/07/17 09:59:05;;;;;;;;;1.00;1.00;;;;;26.63;45.42;101788.84;5054499;28;45495;-60
2021/07/17 10:01:38;;;;;;;;;1.67;1.67;;;;;26.65;46.18;101792.41;5054635;28;45464;-61
2021/07/17 10:04:12;;;;;;;;;1.00;1.00;;;;;26.65;46.67;101789.69;5053307;28;45483;-61
2021/07/17 10:06:59;;;;;;;;;1.00;1.00;;;;;26.67;46.35;101790.53;5051626;28;45516;-61
2021/07/17 10:09:24;;;;;;;;;0.75;0.75;;;;;26.67;46.06;101788.69;5051251;28;45425;-61
2021/07/17 10:12:01;;;;;;;;;1.00;1.00;;;;;26.69;45.96;101783.16;5033333;28;45495;-61
2021/07/17 10:14:29;;;;;;;;;0.00;0.00;;;;;26.70;46.12;101784.94;5051947;28;45383;-60
2021/07/17 10:16:58;;;;;;;;;1.00;1.00;;;;;26.71;45.76;101792.19;5053893;28;45406;-62
2021/07/17 10:19:25;;;;;;;;;1.00;1.00;;;;;26.73;45.58;101790.28;5054070;28;45463;-63
2021/07/17 10:21:51;;;;;;;;;1.00;1.00;;;;;26.74;45.58;101786.59;5054351;28;45724;-61
2021/07/17 10:24:17;;;;;;;;;1.00;1.00;;;;;26.75;45.07;101791.13;5053314;28;45846;-61
2021/07/17 10:26:45;;;;;;;;;3.00;2.00;;;;;26.75;45.49;101788.41;5053140;28;46017;-61
2021/07/17 10:29:12;;;;;;;;;0.67;0.67;;;;;26.78;45.09;101795.56;5035931;28;45424;-61
2021/07/17 10:31:39;;;;;;;;;1.00;1.00;;;;;26.78;45.26;101787.38;5054345;28;45953;-61
2021/07/17 10:34:06;;;;;;;;;0.33;0.33;;;;;26.77;45.12;101785.63;5054408;28;45474;-61
2021/07/17 10:36:35;;;;;;;;;1.67;1.67;;;;;26.73;44.84;101783.00;5035568;28;47387;-62
2021/07/17 10:39:06;;;;;;;;;1.67;1.67;;;;;26.78;44.74;101782.81;5053974;28;45514;-62
2021/07/17 10:41:38;;;;;;;;;1.00;1.00;;;;;26.79;44.54;101794.66;5054284;28;45426;-62
2021/07/17 10:44:04;;;;;;;;;1.67;1.00;;;;;26.77;44.84;101781.03;5054517;28;45452;-62
2021/07/17 10:46:30;;;;;;;;;1.33;0.00;;;;;26.77;44.26;101794.69;5053765;28;45479;-62
2021/07/17 10:48:56;;;;;;;;;0.33;0.33;;;;;26.78;44.35;101791.00;5054083;28;45725;-62
2021/07/17 10:51:22;;;;;;;;;1.00;1.00;;;;;26.78;44.25;101788.28;5054001;28;45558;-62
2021/07/17 10:53:56;;;;;;;;;0.33;0.33;;;;;26.79;44.18;101783.72;5053794;28;45811;-62
2021/07/17 10:56:27;;;;;;;;;0.00;0.00;;;;;26.78;44.03;101782.81;5053613;28;45386;-62
2021/07/17 10:58:54;;;;;;;;;1.00;1.00;;;;;26.78;44.24;101781.94;5054374;28;45418;-62
2021/07/17 11:01:20;;;;;;;;;0.00;0.00;;;;;26.79;44.21;101778.28;5054037;28;45437;-62
2021/07/17 11:03:46;;;;;;;;;1.00;1.00;;;;;26.77;44.12;101774.69;5053801;28;45730;-61
2021/07/17 11:06:33;;;;;;;;;1.00;1.00;;;;;26.78;43.76;101771.91;5055436;28;45903;-62
2021/07/17 11:09:30;;;;;;;;;1.00;1.00;;;;;26.78;43.85;101777.34;5057038;28;45425;-62
2021/07/17 11:12:17;;;;;;;;;0.67;0.67;;;;;26.78;44.32;101780.09;5057407;28;45450;-62
2021/07/17 11:14:43;;;;;;;;;0.25;0.25;;;;;26.77;44.24;101775.59;5057320;28;45706;-61
2021/07/17 11:17:08;;;;;;;;;0.00;0.00;;;;;26.76;44.07;101781.97;5057033;28;45449;-61
2021/07/17 11:19:34;;;;;;;;;1.67;1.00;;;;;26.74;43.80;101767.50;5057286;28;45482;-61
2021/07/17 11:22:11;;;;;;;;;0.33;0.33;;;;;26.76;43.72;101772.91;5057218;28;45451;-62